Time;durP1;ratioP1;P1;durP2;ratioP2;P2;SDS_P1;SDS_P2;PMS_P1;PMS_P2;Temp;Humidity;BMP_temperature;BMP_pressure;BME280_temperature;BME280_humidity;BME280_pressure;Samples;Min_cycle;Max_cycle;Signal;HPM_P1;HPM_P2
2022/02/24 00:02:00;;;;;;;;;;;22.00;30.30;;;;;;5056358;28;20016;-47
2022/02/24 00:04:26;;;;;;;;;;;22.00;30.30;;;;;;5055745;28;20378;-50
2022/02/24 00:06:52;;;;;;;;;;;22.00;30.20;;;;;;5044861;28;19916;-46
2022/02/24 00:09:17;;;;;;;;;;;22.00;30.20;;;;;;5036732;28;19915;-45
2022/02/24 00:11:43;;;;;;;;;;;22.00;30.20;;;;;;5040441;28;19913;-45
2022/02/24 00:14:09;;;;;;;;;;;22.00;30.20;;;;;;5056362;28;19920;-45
2022/02/24 00:16:35;;;;;;;;;;;22.00;30.20;;;;;;5051349;28;20374;-50
2022/02/24 00:19:00;;;;;;;;;;;22.00;30.20;;;;;;5054786;28;19912;-47
2022/02/24 00:21:27;;;;;;;;;;;22.00;30.20;;;;;;5039517;28;20007;-48
2022/02/24 00:23:52;;;;;;;;;;;22.00;30.20;;;;;;5036425;28;20012;-46
2022/02/24 00:26:18;;;;;;;;;;;22.00;30.20;;;;;;5050990;28;19905;-47
2022/02/24 00:28:44;;;;;;;;;;;21.90;30.20;;;;;;5056029;28;19913;-49
2022/02/24 00:31:09;;;;;;;;;;;22.00;30.20;;;;;;5033584;28;19920;-51
2022/02/24 00:33:35;;;;;;;;;;;21.90;30.20;;;;;;5055976;28;19967;-49
2022/02/24 00:36:02;;;;;;;;;;;22.00;30.30;;;;;;5037073;28;19996;-48
2022/02/24 00:38:27;;;;;;;;;;;21.90;30.20;;;;;;5051268;28;20007;-49
2022/02/24 00:40:53;;;;;;;;;;;22.00;30.20;;;;;;5054972;28;19938;-52
2022/02/24 00:43:19;;;;;;;;;;;21.90;30.10;;;;;;5035874;28;19996;-47
2022/02/24 00:45:44;;;;;;;;;;;21.90;30.10;;;;;;5035919;28;19999;-48
2022/02/24 00:48:10;;;;;;;;;;;21.90;30.10;;;;;;5036678;28;19940;-50
2022/02/24 00:50:37;;;;;;;;;;;21.90;30.10;;;;;;5036149;28;19917;-47
2022/02/24 00:53:02;;;;;;;;;;;21.90;30.10;;;;;;5052349;28;19927;-50
2022/02/24 00:55:28;;;;;;;;;;;21.90;30.10;;;;;;5039451;28;20374;-46
2022/02/24 00:57:54;;;;;;;;;;;21.90;30.00;;;;;;5038625;28;19909;-48
2022/02/24 01:00:21;;;;;;;;;;;21.90;30.00;;;;;;5041817;28;19924;-50
2022/02/24 01:02:46;;;;;;;;;;;21.90;30.00;;;;;;5054435;28;20231;-50
2022/02/24 01:05:12;;;;;;;;;;;21.90;30.00;;;;;;5039944;28;19904;-45
2022/02/24 01:07:38;;;;;;;;;;;21.90;30.00;;;;;;5055185;28;19915;-44
2022/02/24 01:10:04;;;;;;;;;;;21.90;30.00;;;;;;5042575;28;20367;-47
2022/02/24 01:12:30;;;;;;;;;;;21.90;30.00;;;;;;5055667;28;19915;-46
2022/02/24 01:14:56;;;;;;;;;;;21.90;30.00;;;;;;5050451;28;19905;-53
2022/02/24 01:17:22;;;;;;;;;;;21.90;30.00;;;;;;5047206;28;19954;-49
2022/02/24 01:19:48;;;;;;;;;;;21.90;30.00;;;;;;5045376;28;20312;-52
2022/02/24 01:22:16;;;;;;;;;;;21.90;30.00;;;;;;5046754;28;19963;-48
2022/02/24 01:24:42;;;;;;;;;;;21.90;30.00;;;;;;5044218;28;19912;-50
2022/02/24 01:27:08;;;;;;;;;;;21.90;30.00;;;;;;5042556;28;19905;-50
2022/02/24 01:29:33;;;;;;;;;;;21.90;30.00;;;;;;5042277;28;19916;-50
2022/02/24 01:31:59;;;;;;;;;;;21.90;30.20;;;;;;5055398;28;19904;-51
2022/02/24 01:34:27;;;;;;;;;;;21.80;30.10;;;;;;5048303;28;19909;-47
2022/02/24 01:36:53;;;;;;;;;;;21.80;30.20;;;;;;5053977;28;19916;-50
2022/02/24 01:39:19;;;;;;;;;;;21.80;30.20;;;;;;5038996;28;19920;-51
2022/02/24 01:41:44;;;;;;;;;;;21.80;30.20;;;;;;5051265;28;19908;-44
2022/02/24 01:44:11;;;;;;;;;;;21.80;30.20;;;;;;5046637;28;19905;-48
2022/02/24 01:46:37;;;;;;;;;;;21.80;30.10;;;;;;5036806;28;20251;-49
2022/02/24 01:49:04;;;;;;;;;;;21.80;30.10;;;;;;5045438;28;19905;-50
2022/02/24 01:51:30;;;;;;;;;;;21.90;30.20;;;;;;5050447;28;20049;-49
2022/02/24 01:53:56;;;;;;;;;;;21.80;30.10;;;;;;5045659;28;20228;-50
2022/02/24 01:56:22;;;;;;;;;;;21.90;30.20;;;;;;5034982;28;19912;-46
2022/02/24 01:58:48;;;;;;;;;;;21.90;30.20;;;;;;5045185;28;19916;-47
2022/02/24 02:01:14;;;;;;;;;;;21.90;30.20;;;;;;5038362;28;20309;-47
2022/02/24 02:03:40;;;;;;;;;;;21.90;30.10;;;;;;5051915;28;19924;-46
2022/02/24 02:06:06;;;;;;;;;;;21.90;30.10;;;;;;5049846;28;20295;-48
2022/02/24 02:08:32;;;;;;;;;;;21.90;30.10;;;;;;5045206;28;19944;-51
2022/02/24 02:10:58;;;;;;;;;;;21.90;30.00;;;;;;5059379;28;19905;-45
2022/02/24 02:13:23;;;;;;;;;;;21.90;30.10;;;;;;5058021;28;20338;-48
2022/02/24 02:15:49;;;;;;;;;;;21.90;30.00;;;;;;5052172;28;19916;-48
2022/02/24 02:18:15;;;;;;;;;;;21.90;30.00;;;;;;5058265;28;19939;-47
2022/02/24 02:20:41;;;;;;;;;;;21.90;30.10;;;;;;5045441;28;19960;-46
2022/02/24 02:23:07;;;;;;;;;;;21.90;30.10;;;;;;5038873;28;19970;-46
2022/02/24 02:25:32;;;;;;;;;;;21.80;30.10;;;;;;5049487;28;20327;-47
2022/02/24 02:27:58;;;;;;;;;;;21.90;30.10;;;;;;5052637;28;19948;-46
2022/02/24 02:30:24;;;;;;;;;;;21.80;30.10;;;;;;5050384;28;19912;-45
2022/02/24 02:32:49;;;;;;;;;;;21.90;30.10;;;;;;5058240;28;19905;-47
2022/02/24 02:35:15;;;;;;;;;;;21.90;30.10;;;;;;5056924;28;20381;-46
2022/02/24 02:37:41;;;;;;;;;;;21.90;30.10;;;;;;5058729;28;19962;-53
2022/02/24 02:40:08;;;;;;;;;;;21.90;30.10;;;;;;5047977;28;19917;-49
2022/02/24 02:42:33;;;;;;;;;;;21.90;30.00;;;;;;5046927;28;19909;-46
2022/02/24 02:44:59;;;;;;;;;;;21.80;30.00;;;;;;5044303;28;19904;-47
2022/02/24 02:47:25;;;;;;;;;;;21.90;30.00;;;;;;5058443;28;19904;-48
2022/02/24 02:49:50;;;;;;;;;;;21.80;30.60;;;;;;5043012;28;20240;-46
2022/02/24 02:52:16;;;;;;;;;;;21.80;30.00;;;;;;5045757;28;19912;-44
2022/02/24 02:54:42;;;;;;;;;;;21.80;30.00;;;;;;5042055;28;19908;-45
2022/02/24 02:57:07;;;;;;;;;;;21.90;30.00;;;;;;5058159;28;20296;-45
2022/02/24 02:59:33;;;;;;;;;;;21.80;30.00;;;;;;5043960;28;19931;-45
2022/02/24 03:01:58;;;;;;;;;;;21.80;30.00;;;;;;5041679;28;19905;-46
2022/02/24 03:04:24;;;;;;;;;;;21.80;30.00;;;;;;5048361;28;19919;-48
2022/02/24 03:06:50;;;;;;;;;;;21.80;30.00;;;;;;5044702;28;19905;-47
2022/02/24 03:09:16;;;;;;;;;;;21.90;30.00;;;;;;5039268;28;20236;-47
2022/02/24 03:11:42;;;;;;;;;;;21.80;30.00;;;;;;5037343;28;20290;-45
2022/02/24 03:14:07;;;;;;;;;;;21.80;30.00;;;;;;5039071;28;20058;-50
2022/02/24 03:16:33;;;;;;;;;;;21.80;30.00;;;;;;5041066;28;19904;-46
2022/02/24 03:18:59;;;;;;;;;;;21.80;30.00;;;;;;5044051;28;19999;-47
2022/02/24 03:21:24;;;;;;;;;;;21.80;30.00;;;;;;5042891;28;19917;-49
2022/02/24 03:23:50;;;;;;;;;;;21.80;30.00;;;;;;5053174;28;19913;-49
2022/02/24 03:26:16;;;;;;;;;;;21.80;30.00;;;;;;5052678;28;19908;-48
2022/02/24 03:28:41;;;;;;;;;;;21.80;29.90;;;;;;5052133;28;19915;-46
2022/02/24 03:31:07;;;;;;;;;;;21.80;29.90;;;;;;5056692;28;19963;-50
2022/02/24 03:33:33;;;;;;;;;;;21.70;29.90;;;;;;5055822;28;19916;-52
2022/02/24 03:35:58;;;;;;;;;;;21.70;29.90;;;;;;5040849;28;20219;-51
2022/02/24 03:38:24;;;;;;;;;;;21.70;29.90;;;;;;5047305;28;20224;-51
2022/02/24 03:40:50;;;;;;;;;;;21.70;29.90;;;;;;5054235;28;19974;-47
2022/02/24 03:43:15;;;;;;;;;;;21.70;29.90;;;;;;5052635;28;19926;-53
2022/02/24 03:45:41;;;;;;;;;;;21.70;29.90;;;;;;5038257;28;19904;-48
2022/02/24 03:48:07;;;;;;;;;;;21.70;29.90;;;;;;5052828;28;20213;-45
2022/02/24 03:50:32;;;;;;;;;;;21.70;29.90;;;;;;5056671;28;20201;-52
2022/02/24 03:52:58;;;;;;;;;;;21.70;29.90;;;;;;5047861;28;20290;-44
2022/02/24 03:55:24;;;;;;;;;;;21.70;29.90;;;;;;5046271;28;19905;-49
2022/02/24 03:57:49;;;;;;;;;;;21.70;29.90;;;;;;5049335;28;19917;-48
2022/02/24 04:00:15;;;;;;;;;;;21.70;29.90;;;;;;5049622;28;19924;-47
2022/02/24 04:02:42;;;;;;;;;;;21.70;29.90;;;;;;5038636;28;19913;-44
2022/02/24 04:05:09;;;;;;;;;;;21.70;29.90;;;;;;5042853;28;19905;-44
2022/02/24 04:07:35;;;;;;;;;;;21.70;29.90;;;;;;5055284;28;20342;-45
2022/02/24 04:10:03;;;;;;;;;;;21.70;29.90;;;;;;5049554;28;19905;-43
2022/02/24 04:12:28;;;;;;;;;;;21.60;29.90;;;;;;5040738;28;19936;-48
2022/02/24 04:14:55;;;;;;;;;;;21.70;29.90;;;;;;5056749;28;19906;-45
2022/02/24 04:17:21;;;;;;;;;;;21.70;29.90;;;;;;5038326;28;20004;-49
2022/02/24 04:19:46;;;;;;;;;;;21.60;29.80;;;;;;5050859;28;20308;-50
2022/02/24 04:22:12;;;;;;;;;;;21.60;29.90;;;;;;5051586;28;19905;-45
2022/02/24 04:24:38;;;;;;;;;;;21.70;29.90;;;;;;5040427;28;20240;-46
2022/02/24 04:27:04;;;;;;;;;;;21.60;29.90;;;;;;5050755;28;19905;-47
2022/02/24 04:29:30;;;;;;;;;;;21.60;29.90;;;;;;5036257;28;20385;-49
2022/02/24 04:31:55;;;;;;;;;;;21.70;29.90;;;;;;5040922;28;19909;-44
2022/02/24 04:34:21;;;;;;;;;;;21.60;29.90;;;;;;5036281;28;19905;-47
2022/02/24 04:36:47;;;;;;;;;;;21.60;29.90;;;;;;5036373;28;19909;-50
2022/02/24 04:39:12;;;;;;;;;;;21.60;29.90;;;;;;5038507;28;19915;-45
2022/02/24 04:41:38;;;;;;;;;;;21.60;29.90;;;;;;5044652;28;19912;-47
2022/02/24 04:44:04;;;;;;;;;;;21.60;29.90;;;;;;5052279;28;19999;-43
2022/02/24 04:46:31;;;;;;;;;;;21.60;29.90;;;;;;5051046;28;19904;-44
2022/02/24 04:48:57;;;;;;;;;;;21.60;29.90;;;;;;5055091;28;20193;-45
2022/02/24 04:51:23;;;;;;;;;;;21.60;29.90;;;;;;5054661;28;19905;-47
2022/02/24 04:53:48;;;;;;;;;;;21.60;29.90;;;;;;5054934;28;19958;-45
2022/02/24 04:56:14;;;;;;;;;;;21.60;30.00;;;;;;5036370;28;20376;-48
2022/02/24 04:58:40;;;;;;;;;;;21.60;30.00;;;;;;5035720;28;20011;-48
2022/02/24 05:01:05;;;;;;;;;;;21.60;30.00;;;;;;5035770;28;19986;-47
2022/02/24 05:03:31;;;;;;;;;;;21.60;30.00;;;;;;5052037;28;19974;-46
2022/02/24 05:05:57;;;;;;;;;;;21.60;30.00;;;;;;5054960;28;19905;-47
2022/02/24 05:08:22;;;;;;;;;;;21.60;30.00;;;;;;5045879;28;19905;-46
2022/02/24 05:10:48;;;;;;;;;;;21.60;30.00;;;;;;5035592;28;19928;-47
2022/02/24 05:13:13;;;;;;;;;;;21.60;30.00;;;;;;5035502;28;19951;-48
2022/02/24 05:15:41;;;;;;;;;;;21.60;30.00;;;;;;5041084;28;19988;-46
2022/02/24 05:18:07;;;;;;;;;;;21.60;30.00;;;;;;5046457;28;19905;-43
2022/02/24 05:20:33;;;;;;;;;;;21.60;30.00;;;;;;5040859;28;20003;-46
2022/02/24 05:22:59;;;;;;;;;;;21.60;30.00;;;;;;5049200;28;19905;-47
2022/02/24 05:25:24;;;;;;;;;;;21.50;30.00;;;;;;5040952;28;19905;-48
2022/02/24 05:27:51;;;;;;;;;;;21.50;30.00;;;;;;5055688;28;19944;-47
2022/02/24 05:30:17;;;;;;;;;;;21.50;30.00;;;;;;5050393;28;19905;-50
2022/02/24 05:32:42;;;;;;;;;;;21.50;30.00;;;;;;5055886;28;19904;-47
2022/02/24 05:35:09;;;;;;;;;;;21.50;30.00;;;;;;5047742;28;19905;-46
2022/02/24 05:37:35;;;;;;;;;;;21.50;30.00;;;;;;5038092;28;19901;-46
2022/02/24 05:40:02;;;;;;;;;;;21.50;30.00;;;;;;5049829;28;19917;-48
2022/02/24 05:42:28;;;;;;;;;;;21.50;30.00;;;;;;5033475;28;19909;-44
2022/02/24 05:44:53;;;;;;;;;;;21.50;30.00;;;;;;5051971;28;19915;-46
2022/02/24 05:47:20;;;;;;;;;;;21.50;30.00;;;;;;5048011;28;19962;-48
2022/02/24 05:49:45;;;;;;;;;;;21.50;30.10;;;;;;5051941;28;19917;-49
2022/02/24 05:52:11;;;;;;;;;;;21.50;30.10;;;;;;5036030;28;19984;-51
2022/02/24 05:54:37;;;;;;;;;;;21.50;30.10;;;;;;5036356;28;19905;-48
2022/02/24 05:57:03;;;;;;;;;;;21.50;30.10;;;;;;5050892;28;19905;-47
2022/02/24 05:59:29;;;;;;;;;;;21.50;30.10;;;;;;5044536;28;19913;-47
2022/02/24 06:01:54;;;;;;;;;;;21.50;30.10;;;;;;5043386;28;20307;-48
2022/02/24 06:04:20;;;;;;;;;;;21.50;30.20;;;;;;5042877;28;19924;-47
2022/02/24 06:06:46;;;;;;;;;;;21.50;30.20;;;;;;5052887;28;19909;-48
2022/02/24 06:09:11;;;;;;;;;;;21.50;30.20;;;;;;5042072;28;19988;-48
2022/02/24 06:11:37;;;;;;;;;;;21.50;30.20;;;;;;5041494;28;19905;-46
2022/02/24 06:14:03;;;;;;;;;;;21.50;30.20;;;;;;5038599;28;19928;-48
2022/02/24 06:16:29;;;;;;;;;;;21.50;30.20;;;;;;5048341;28;20338;-49
2022/02/24 06:18:54;;;;;;;;;;;21.50;30.20;;;;;;5050064;28;20378;-52
2022/02/24 06:21:20;;;;;;;;;;;21.50;30.30;;;;;;5045180;28;19948;-48
2022/02/24 06:23:46;;;;;;;;;;;21.50;30.30;;;;;;5042929;28;19905;-46
2022/02/24 06:26:12;;;;;;;;;;;21.50;30.30;;;;;;5038566;28;19999;-49
2022/02/24 06:28:38;;;;;;;;;;;21.40;30.30;;;;;;5042881;28;19905;-49
2022/02/24 06:31:03;;;;;;;;;;;21.40;30.30;;;;;;5042262;28;20374;-48
2022/02/24 06:33:29;;;;;;;;;;;21.50;30.30;;;;;;5044197;28;19974;-50
2022/02/24 06:35:55;;;;;;;;;;;21.40;30.30;;;;;;5036041;28;19979;-50
2022/02/24 06:38:20;;;;;;;;;;;21.40;30.30;;;;;;5043499;28;19905;-46
2022/02/24 06:40:46;;;;;;;;;;;21.40;30.40;;;;;;5044711;28;19917;-50
2022/02/24 06:43:11;;;;;;;;;;;21.40;30.40;;;;;;5034888;28;19992;-50
2022/02/24 06:45:37;;;;;;;;;;;21.40;30.40;;;;;;5046562;28;19931;-50
2022/02/24 06:48:03;;;;;;;;;;;21.40;30.40;;;;;;5052338;28;19948;-47
2022/02/24 06:50:29;;;;;;;;;;;21.40;30.40;;;;;;5037817;28;19915;-45
2022/02/24 06:52:54;;;;;;;;;;;21.40;30.40;;;;;;5048453;28;19944;-47
2022/02/24 06:55:20;;;;;;;;;;;21.40;30.50;;;;;;5044839;28;19904;-48
2022/02/24 06:57:47;;;;;;;;;;;21.40;30.50;;;;;;5047629;28;19912;-46
2022/02/24 07:00:13;;;;;;;;;;;21.40;30.50;;;;;;5049062;28;20344;-51
2022/02/24 07:02:39;;;;;;;;;;;21.40;30.50;;;;;;5057274;28;19927;-49
2022/02/24 07:05:05;;;;;;;;;;;21.40;30.50;;;;;;5048952;28;19904;-46
2022/02/24 07:07:33;;;;;;;;;;;21.40;30.50;;;;;;5054726;28;19911;-52
2022/02/24 07:09:58;;;;;;;;;;;21.40;30.50;;;;;;5040065;28;19905;-46
2022/02/24 07:12:24;;;;;;;;;;;21.40;30.50;;;;;;5049791;28;20384;-47
2022/02/24 07:14:50;;;;;;;;;;;21.40;30.50;;;;;;5043290;28;19915;-48
2022/02/24 07:17:15;;;;;;;;;;;21.40;30.50;;;;;;5037934;28;19909;-50
2022/02/24 07:19:41;;;;;;;;;;;21.40;30.50;;;;;;5030060;28;20007;-49
2022/02/24 07:22:06;;;;;;;;;;;21.40;30.50;;;;;;5055367;28;19909;-52
2022/02/24 07:24:32;;;;;;;;;;;21.40;30.60;;;;;;5043566;28;19946;-48
2022/02/24 07:26:58;;;;;;;;;;;21.40;30.60;;;;;;5038234;28;19924;-48
2022/02/24 07:29:23;;;;;;;;;;;21.40;30.70;;;;;;5047048;28;20215;-48
2022/02/24 07:31:49;;;;;;;;;;;21.40;30.60;;;;;;5056715;28;19966;-51
2022/02/24 07:34:15;;;;;;;;;;;21.40;30.60;;;;;;5041868;28;19909;-47
2022/02/24 07:36:42;;;;;;;;;;;21.40;30.60;;;;;;5037642;28;19905;-48
2022/02/24 07:39:10;;;;;;;;;;;21.30;30.60;;;;;;5039275;28;20264;-48
2022/02/24 07:41:40;;;;;;;;;;;21.30;30.60;;;;;;5051574;28;20339;-48
2022/02/24 07:44:06;;;;;;;;;;;21.30;30.70;;;;;;5053713;28;19962;-50
2022/02/24 07:46:32;;;;;;;;;;;21.30;30.80;;;;;;5051637;28;19905;-46
2022/02/24 07:48:57;;;;;;;;;;;21.30;30.90;;;;;;5049910;28;19905;-46
2022/02/24 07:51:23;;;;;;;;;;;21.40;31.00;;;;;;5042370;28;20336;-47
2022/02/24 07:53:48;;;;;;;;;;;21.40;31.00;;;;;;5042812;28;20251;-53
2022/02/24 07:56:14;;;;;;;;;;;21.50;30.90;;;;;;5058548;28;19912;-58
2022/02/24 07:58:40;;;;;;;;;;;21.60;30.90;;;;;;5037812;28;19942;-53
2022/02/24 08:01:06;;;;;;;;;;;21.70;30.90;;;;;;5048677;28;20003;-56
2022/02/24 08:03:33;;;;;;;;;;;21.80;30.80;;;;;;5053492;28;19912;-47
2022/02/24 08:05:58;;;;;;;;;;;21.80;30.80;;;;;;5044573;28;19904;-46
2022/02/24 08:08:24;;;;;;;;;;;21.90;30.70;;;;;;5050982;28;19905;-45
2022/02/24 08:10:50;;;;;;;;;;;22.00;30.70;;;;;;5056678;28;20202;-47
2022/02/24 08:13:16;;;;;;;;;;;22.10;30.60;;;;;;5055513;28;19913;-46
2022/02/24 08:15:42;;;;;;;;;;;22.20;30.60;;;;;;5056730;28;19911;-51
2022/02/24 08:18:08;;;;;;;;;;;22.30;30.50;;;;;;5050596;28;20266;-50
2022/02/24 08:20:34;;;;;;;;;;;22.40;30.50;;;;;;5036244;28;19921;-46
2022/02/24 08:23:03;;;;;;;;;;;22.40;30.40;;;;;;5044499;28;19904;-48
2022/02/24 08:25:30;;;;;;;;;;;22.50;30.40;;;;;;5056165;28;19915;-48
2022/02/24 08:27:55;;;;;;;;;;;22.60;30.40;;;;;;5055950;28;19905;-47
2022/02/24 08:30:22;;;;;;;;;;;22.60;30.30;;;;;;5057055;28;20009;-49
2022/02/24 08:32:47;;;;;;;;;;;22.70;30.20;;;;;;5049711;28;19904;-51
2022/02/24 08:35:14;;;;;;;;;;;22.80;30.20;;;;;;5037213;28;19996;-50
2022/02/24 08:37:40;;;;;;;;;;;22.80;30.20;;;;;;5055466;28;19951;-48
2022/02/24 08:40:06;;;;;;;;;;;22.90;30.20;;;;;;5050840;28;19981;-47
2022/02/24 08:42:32;;;;;;;;;;;22.90;30.10;;;;;;5054783;28;19904;-49
2022/02/24 08:44:58;;;;;;;;;;;23.00;30.20;;;;;;5055112;28;20244;-47
2022/02/24 08:47:23;;;;;;;;;;;23.00;30.10;;;;;;5054093;28;19916;-53
2022/02/24 08:49:51;;;;;;;;;;;23.10;30.10;;;;;;5054784;28;19905;-53
2022/02/24 08:52:17;;;;;;;;;;;23.10;30.00;;;;;;5053301;28;19917;-47
2022/02/24 08:54:43;;;;;;;;;;;23.20;30.00;;;;;;5053445;28;19905;-50
2022/02/24 08:57:08;;;;;;;;;;;23.20;30.00;;;;;;5036661;28;19915;-45
2022/02/24 08:59:35;;;;;;;;;;;23.30;30.00;;;;;;5054563;28;19956;-50
2022/02/24 09:02:01;;;;;;;;;;;23.30;30.00;;;;;;5054460;28;19904;-45
2022/02/24 09:04:26;;;;;;;;;;;23.30;29.90;;;;;;5048370;28;19927;-44
2022/02/24 09:06:52;;;;;;;;;;;23.40;29.90;;;;;;5035672;28;19932;-48
2022/02/24 09:09:18;;;;;;;;;;;23.40;29.90;;;;;;5036508;28;20320;-46
2022/02/24 09:11:44;;;;;;;;;;;23.50;29.90;;;;;;5035653;28;19956;-44
2022/02/24 09:14:10;;;;;;;;;;;23.50;29.80;;;;;;5045408;28;19913;-44
2022/02/24 09:16:35;;;;;;;;;;;23.60;29.80;;;;;;5055415;28;20007;-45
2022/02/24 09:19:01;;;;;;;;;;;23.60;29.80;;;;;;5047110;28;20170;-47
2022/02/24 09:21:27;;;;;;;;;;;23.60;29.80;;;;;;5035402;28;19963;-50
2022/02/24 09:23:52;;;;;;;;;;;23.60;29.70;;;;;;5043237;28;20007;-52
2022/02/24 09:26:18;;;;;;;;;;;23.60;29.70;;;;;;5055004;28;20300;-47
2022/02/24 09:28:44;;;;;;;;;;;23.70;29.70;;;;;;5054768;28;19954;-46
2022/02/24 09:31:10;;;;;;;;;;;23.70;29.70;;;;;;5055222;28;19915;-47
2022/02/24 09:33:35;;;;;;;;;;;23.70;29.60;;;;;;5053601;28;19909;-48
2022/02/24 09:36:01;;;;;;;;;;;23.70;29.60;;;;;;5055364;28;20335;-50
2022/02/24 09:38:27;;;;;;;;;;;23.70;29.60;;;;;;5043343;28;20206;-46
2022/02/24 09:40:54;;;;;;;;;;;23.70;29.50;;;;;;5035344;28;19913;-48
2022/02/24 09:43:20;;;;;;;;;;;23.70;29.50;;;;;;5046039;28;19905;-46
2022/02/24 09:45:47;;;;;;;;;;;23.70;29.50;;;;;;5054757;28;20230;-49
2022/02/24 09:48:14;;;;;;;;;;;23.70;29.50;;;;;;5053241;28;19916;-48
2022/02/24 09:50:40;;;;;;;;;;;23.70;29.50;;;;;;5054990;28;19912;-49
2022/02/24 09:53:06;;;;;;;;;;;23.70;29.50;;;;;;5045836;28;20255;-46
2022/02/24 09:55:32;;;;;;;;;;;23.70;29.50;;;;;;5047099;28;19905;-47
2022/02/24 09:57:57;;;;;;;;;;;23.70;29.50;;;;;;5048249;28;19905;-48
2022/02/24 10:00:23;;;;;;;;;;;23.70;29.50;;;;;;5034781;28;19944;-50
2022/02/24 10:02:49;;;;;;;;;;;23.60;29.40;;;;;;5038139;28;19928;-47
2022/02/24 10:05:15;;;;;;;;;;;23.60;29.40;;;;;;5037535;28;19943;-52
2022/02/24 10:07:41;;;;;;;;;;;23.60;29.50;;;;;;5049286;28;19916;-52
2022/02/24 10:10:31;;;;;;;;;;;23.60;29.50;;;;;;5047184;28;19905;-53
2022/02/24 10:13:00;;;;;;;;;;;23.50;29.50;;;;;;5052781;28;19987;-49
2022/02/24 10:15:26;;;;;;;;;;;23.50;29.50;;;;;;5050652;28;19916;-53
2022/02/24 10:18:04;;;;;;;;;;;23.40;29.50;;;;;;5038942;28;19905;-49
2022/02/24 10:21:00;;;;;;;;;;;23.40;29.50;;;;;;5051305;28;19912;-48
2022/02/24 10:23:32;;;;;;;;;;;23.40;29.50;;;;;;5033750;28;20251;-46
2022/02/24 10:26:17;;;;;;;;;;;23.30;29.50;;;;;;5056246;28;19911;-46
2022/02/24 10:28:50;;;;;;;;;;;23.20;29.50;;;;;;5052402;28;19966;-49
2022/02/24 10:31:17;;;;;;;;;;;23.10;29.60;;;;;;5054952;28;19964;-48
2022/02/24 10:33:48;;;;;;;;;;;23.10;29.60;;;;;;5041760;28;19917;-44
2022/02/24 10:36:24;;;;;;;;;;;23.10;29.70;;;;;;5038602;28;19904;-48
2022/02/24 10:39:07;;;;;;;;;;;23.00;29.70;;;;;;5043267;28;19904;-49
2022/02/24 10:41:38;;;;;;;;;;;23.00;29.70;;;;;;5054042;28;20264;-50
2022/02/24 10:44:19;;;;;;;;;;;22.90;29.70;;;;;;5042627;28;19967;-48
2022/02/24 10:47:03;;;;;;;;;;;22.90;29.70;;;;;;5043692;28;20001;-49
2022/02/24 10:49:37;;;;;;;;;;;22.90;29.80;;;;;;5056087;28;19904;-51
2022/02/24 10:52:09;;;;;;;;;;;22.80;29.80;;;;;;5041145;28;19905;-53
2022/02/24 10:54:36;;;;;;;;;;;22.80;29.90;;;;;;5041925;28;19991;-48
2022/02/24 10:57:20;;;;;;;;;;;22.80;29.90;;;;;;5037695;28;20362;-49
2022/02/24 10:59:49;;;;;;;;;;;22.80;29.90;;;;;;5052185;28;19916;-51
2022/02/24 11:02:15;;;;;;;;;;;22.80;30.00;;;;;;5055576;28;19917;-52
2022/02/24 11:04:42;;;;;;;;;;;22.80;30.00;;;;;;5057029;28;19928;-50
2022/02/24 11:07:08;;;;;;;;;;;22.80;30.00;;;;;;5042320;28;19915;-50
2022/02/24 11:09:38;;;;;;;;;;;22.70;30.00;;;;;;5047926;28;19905;-54
2022/02/24 11:12:06;;;;;;;;;;;22.70;30.10;;;;;;5043852;28;19970;-51
2022/02/24 11:14:33;;;;;;;;;;;22.70;30.20;;;;;;5043541;28;20328;-53
2022/02/24 11:17:07;;;;;;;;;;;22.70;30.20;;;;;;5053750;28;19904;-51
2022/02/24 11:19:35;;;;;;;;;;;22.70;30.20;;;;;;5049921;28;19991;-51
2022/02/24 11:22:03;;;;;;;;;;;22.70;30.40;;;;;;5054734;28;19905;-54
2022/02/24 11:24:29;;;;;;;;;;;22.70;30.50;;;;;;5030495;28;19915;-55
2022/02/24 11:27:11;;;;;;;;;;;22.70;30.60;;;;;;5051844;28;19915;-55
2022/02/24 11:29:38;;;;;;;;;;;22.70;30.60;;;;;;5050738;28;19967;-49
2022/02/24 11:32:06;;;;;;;;;;;22.80;30.70;;;;;;5048282;28;19940;-46
2022/02/24 11:34:50;;;;;;;;;;;22.80;30.70;;;;;;5052938;28;19915;-49
2022/02/24 11:37:22;;;;;;;;;;;22.80;30.80;;;;;;5048611;28;20316;-50
2022/02/24 11:39:47;;;;;;;;;;;22.80;30.70;;;;;;5046276;28;19971;-52
2022/02/24 11:42:23;;;;;;;;;;;22.80;30.70;;;;;;5050686;28;20320;-52
2022/02/24 11:44:49;;;;;;;;;;;22.90;30.60;;;;;;5034262;28;19963;-50
2022/02/24 11:47:14;;;;;;;;;;;22.90;30.60;;;;;;5056609;28;19904;-51
2022/02/24 11:49:52;;;;;;;;;;;23.00;30.60;;;;;;5056911;28;19915;-48
2022/02/24 11:52:28;;;;;;;;;;;23.00;30.50;;;;;;5037065;28;19915;-46
2022/02/24 11:54:55;;;;;;;;;;;23.00;30.50;;;;;;5037006;28;20231;-51
2022/02/24 11:57:27;;;;;;;;;;;23.00;30.50;;;;;;5050796;28;20205;-48
2022/02/24 11:59:54;;;;;;;;;;;23.10;30.50;;;;;;5055926;28;19913;-49
2022/02/24 12:02:19;;;;;;;;;;;23.10;30.50;;;;;;5051405;28;19905;-52
2022/02/24 12:04:46;;;;;;;;;;;23.10;30.40;;;;;;5055776;28;20341;-49
2022/02/24 12:07:12;;;;;;;;;;;23.10;30.40;;;;;;5055244;28;19978;-48
2022/02/24 12:09:38;;;;;;;;;;;23.10;30.40;;;;;;5054823;28;20248;-48
2022/02/24 12:12:20;;;;;;;;;;;23.10;30.30;;;;;;5038060;28;19916;-47
2022/02/24 12:14:57;;;;;;;;;;;23.10;30.30;;;;;;5041370;28;20197;-50
2022/02/24 12:17:24;;;;;;;;;;;23.10;30.30;;;;;;5056591;28;19909;-46
2022/02/24 12:19:54;;;;;;;;;;;23.10;30.30;;;;;;5050703;28;19924;-48
2022/02/24 12:22:19;;;;;;;;;;;23.10;30.20;;;;;;5043154;28;20342;-49
2022/02/24 12:24:47;;;;;;;;;;;23.10;30.20;;;;;;5040271;28;19995;-46
2022/02/24 12:27:31;;;;;;;;;;;23.10;30.20;;;;;;5042823;28;19916;-46
2022/02/24 12:30:02;;;;;;;;;;;23.10;30.10;;;;;;5047507;28;19905;-51
2022/02/24 12:32:57;;;;;;;;;;;23.10;30.10;;;;;;5039052;28;19908;-45
2022/02/24 12:35:25;;;;;;;;;;;23.10;30.10;;;;;;5036401;28;19905;-52
2022/02/24 12:37:53;;;;;;;;;;;23.20;30.10;;;;;;5044986;28;19929;-54
2022/02/24 12:40:27;;;;;;;;;;;23.20;30.10;;;;;;5046368;28;19912;-54
2022/02/24 12:42:56;;;;;;;;;;;23.20;30.10;;;;;;5043267;28;19905;-55
2022/02/24 12:45:23;;;;;;;;;;;23.20;30.10;;;;;;5042876;28;20636;-48
2022/02/24 12:47:51;;;;;;;;;;;23.20;30.10;;;;;;5044336;28;19916;-45
2022/02/24 12:50:21;;;;;;;;;;;23.20;30.00;;;;;;5040202;28;19962;-47
2022/02/24 12:52:47;;;;;;;;;;;23.20;30.00;;;;;;5042847;28;19982;-47
2022/02/24 12:55:15;;;;;;;;;;;23.30;30.00;;;;;;5053229;28;20411;-46
2022/02/24 12:57:41;;;;;;;;;;;23.20;30.00;;;;;;5048667;28;20348;-47
2022/02/24 13:00:07;;;;;;;;;;;23.20;30.00;;;;;;5052366;28;19912;-48
2022/02/24 13:02:32;;;;;;;;;;;23.30;30.00;;;;;;5036485;28;19924;-46
2022/02/24 13:05:01;;;;;;;;;;;23.30;30.00;;;;;;5018353;28;20007;-46
2022/02/24 13:10:13;;;;;;;;;;;23.20;30.00;;;;;;5024339;28;20205;-47
2022/02/24 13:12:40;;;;;;;;;;;23.20;30.00;;;;;;5038773;28;20353;-50
2022/02/24 13:15:06;;;;;;;;;;;23.20;30.00;;;;;;5055159;28;19901;-46
2022/02/24 13:17:32;;;;;;;;;;;23.20;30.00;;;;;;5055173;28;20004;-50
2022/02/24 13:19:58;;;;;;;;;;;23.20;29.90;;;;;;5038016;28;20333;-47
2022/02/24 13:22:24;;;;;;;;;;;23.20;29.90;;;;;;5055522;28;19915;-45
2022/02/24 13:24:50;;;;;;;;;;;23.20;29.90;;;;;;5055197;28;19912;-50
2022/02/24 13:27:17;;;;;;;;;;;23.20;29.90;;;;;;5055324;28;19912;-47
2022/02/24 13:29:45;;;;;;;;;;;23.20;29.90;;;;;;5055731;28;19905;-50
2022/02/24 13:32:11;;;;;;;;;;;23.20;29.90;;;;;;5055546;28;19911;-50
2022/02/24 13:34:37;;;;;;;;;;;23.10;30.00;;;;;;5055185;28;19905;-46
2022/02/24 13:37:03;;;;;;;;;;;23.10;29.90;;;;;;5055419;28;19970;-45
2022/02/24 13:39:33;;;;;;;;;;;23.20;30.00;;;;;;5054770;28;19905;-45
2022/02/24 13:42:02;;;;;;;;;;;23.10;29.90;;;;;;5054741;28;20235;-44
2022/02/24 13:44:28;;;;;;;;;;;23.10;30.00;;;;;;5055420;28;19911;-47
2022/02/24 13:47:04;;;;;;;;;;;23.10;30.00;;;;;;5055061;28;19912;-46
2022/02/24 13:49:34;;;;;;;;;;;23.10;30.00;;;;;;5052331;28;19919;-44
2022/02/24 13:52:01;;;;;;;;;;;23.10;30.00;;;;;;5054933;28;19924;-46
2022/02/24 13:54:27;;;;;;;;;;;23.10;30.00;;;;;;5055738;28;19904;-46
2022/02/24 13:56:53;;;;;;;;;;;23.10;30.00;;;;;;5057400;28;19911;-47
2022/02/24 13:59:22;;;;;;;;;;;23.10;30.00;;;;;;5058756;28;19975;-50
2022/02/24 14:01:49;;;;;;;;;;;23.00;30.00;;;;;;5059462;28;19913;-51
2022/02/24 14:04:16;;;;;;;;;;;23.00;30.00;;;;;;5059367;28;20402;-47
2022/02/24 14:06:42;;;;;;;;;;;23.00;30.00;;;;;;5058998;28;19905;-47
2022/02/24 14:09:16;;;;;;;;;;;23.00;30.00;;;;;;5059041;28;20276;-46
2022/02/24 14:11:44;;;;;;;;;;;23.00;30.00;;;;;;5058747;28;19924;-48
2022/02/24 14:14:10;;;;;;;;;;;23.10;30.70;;;;;;5059240;28;19912;-49
2022/02/24 14:16:36;;;;;;;;;;;23.10;30.10;;;;;;5055730;28;19966;-50
2022/02/24 14:19:02;;;;;;;;;;;23.00;30.00;;;;;;5057923;28;19904;-47